Time;durP1;ratioP1;P1;durP2;ratioP2;P2;SDS_P1;SDS_P2;PMS_P1;PMS_P2;Temp;Humidity;BMP_temperature;BMP_pressure;BME280_temperature;BME280_humidity;BME280_pressure;Samples;Min_cycle;Max_cycle;Signal;HPM_P1;HPM_P2
2021/10/01 00:01:29;;;;;;;1.93;1.00;;;12.40;99.90;;;;;;5059199;28;20289;-49
2021/10/01 00:03:57;;;;;;;1.87;1.40;;;12.40;99.90;;;;;;5064079;28;20263;-50
2021/10/01 00:06:23;;;;;;;7.60;1.20;;;12.40;99.90;;;;;;5060933;28;20299;-49
2021/10/01 00:08:51;;;;;;;1.93;1.03;;;12.30;99.90;;;;;;5061445;28;20225;-49
2021/10/01 00:11:18;;;;;;;3.77;1.20;;;12.30;1.00;;;;;;5042354;28;20667;-49
2021/10/01 00:13:45;;;;;;;3.43;1.33;;;12.30;1.00;;;;;;5061508;28;20331;-49
2021/10/01 00:16:12;;;;;;;2.50;1.00;;;12.20;1.00;;;;;;5059796;28;20200;-49
2021/10/01 00:18:40;;;;;;;5.30;1.53;;;12.30;1.00;;;;;;5058681;28;20231;-49
2021/10/01 00:21:07;;;;;;;3.40;1.40;;;12.30;99.90;;;;;;5062393;28;20678;-49
2021/10/01 00:23:34;;;;;;;3.30;1.10;;;12.20;1.00;;;;;;5060569;28;20220;-49
2021/10/01 00:26:02;;;;;;;2.03;0.93;;;12.30;1.00;;;;;;5074457;28;20198;-50
2021/10/01 00:28:30;;;;;;;4.70;0.90;;;12.20;1.00;;;;;;5060106;28;20290;-49
2021/10/01 00:30:56;;;;;;;3.07;1.20;;;12.20;1.00;;;;;;5061851;28;20306;-49
2021/10/01 00:33:23;;;;;;;2.63;1.20;;;12.20;1.00;;;;;;5060050;28;20219;-49
2021/10/01 00:35:50;;;;;;;5.70;1.20;;;12.10;1.00;;;;;;5060529;28;20261;-48
2021/10/01 00:38:17;;;;;;;3.33;1.13;;;12.20;1.00;;;;;;5059737;28;20633;-49
2021/10/01 00:40:45;;;;;;;1.87;0.93;;;12.20;1.00;;;;;;5057921;28;20235;-50
2021/10/01 00:43:11;;;;;;;1.50;0.90;;;12.20;1.00;;;;;;5063968;28;20289;-49
2021/10/01 00:45:38;;;;;;;3.27;1.10;;;12.20;1.00;;;;;;5059534;28;20207;-49
2021/10/01 00:48:05;;;;;;;1.10;0.80;;;12.20;1.00;;;;;;5062628;28;20246;-49
2021/10/01 00:50:32;;;;;;;2.13;0.90;;;12.30;1.00;;;;;;5058689;28;20302;-50
2021/10/01 00:52:59;;;;;;;2.70;1.20;;;12.30;1.00;;;;;;5038306;28;20283;-49
2021/10/01 00:55:26;;;;;;;5.43;1.27;;;12.30;1.00;;;;;;5059044;28;20601;-50
2021/10/01 00:57:53;;;;;;;2.07;1.13;;;12.30;1.00;;;;;;5062256;28;20683;-49
2021/10/01 01:00:27;;;;;;;4.90;1.00;;;12.20;1.00;;;;;;5059830;28;20705;-50
2021/10/01 01:03:00;;;;;;;2.97;0.93;;;12.30;1.00;;;;;;5057736;28;20198;-49
2021/10/01 01:05:43;;;;;;;4.30;1.20;;;12.30;1.00;;;;;;5043095;28;20287;-49
2021/10/01 01:08:10;;;;;;;1.77;1.07;;;12.40;1.00;;;;;;5058815;28;20297;-49
2021/10/01 01:10:56;;;;;;;4.87;1.20;;;12.30;1.00;;;;;;5058902;28;20357;-49
2021/10/01 01:13:48;;;;;;;1.77;0.90;;;12.40;1.00;;;;;;5058898;28;20316;-49
2021/10/01 01:16:24;;;;;;;4.53;1.13;;;12.30;1.00;;;;;;5061620;28;20635;-49
2021/10/01 01:18:55;;;;;;;2.87;1.10;;;12.20;1.00;;;;;;5060571;28;20213;-49
2021/10/01 01:21:48;;;;;;;2.70;1.00;;;12.20;1.00;;;;;;5060572;28;20227;-49
2021/10/01 01:24:37;;;;;;;2.97;0.80;;;12.30;1.00;;;;;;5058813;28;20567;-50
2021/10/01 01:27:17;;;;;;;1.13;0.90;;;12.30;1.00;;;;;;5059784;28;20965;-49
2021/10/01 01:29:59;;;;;;;5.47;0.93;;;12.40;1.00;;;;;;5062119;28;20305;-49
2021/10/01 01:32:30;;;;;;;4.77;0.90;;;12.40;1.00;;;;;;5061982;28;20310;-49
2021/10/01 01:35:06;;;;;;;4.17;0.93;;;12.40;1.00;;;;;;5059742;28;20245;-49
2021/10/01 01:37:44;;;;;;;1.47;0.73;;;12.40;99.90;;;;;;5059201;28;20568;-49
2021/10/01 01:40:15;;;;;;;3.33;0.90;;;12.40;1.00;;;;;;5054954;28;20724;-50
2021/10/01 01:42:44;;;;;;;2.43;0.93;;;12.30;1.00;;;;;;5057732;28;20641;-49
2021/10/01 01:45:13;;;;;;;1.67;1.00;;;12.30;1.00;;;;;;5074473;28;20287;-49
2021/10/01 01:47:41;;;;;;;5.50;1.63;;;12.30;1.00;;;;;;5063370;28;20250;-49
2021/10/01 01:50:08;;;;;;;5.67;1.10;;;12.40;1.00;;;;;;5056051;28;20571;-48
2021/10/01 01:52:38;;;;;;;2.60;0.70;;;12.40;1.00;;;;;;5059179;28;20585;-49
2021/10/01 01:55:06;;;;;;;2.93;1.13;;;12.40;99.90;;;;;;5054212;28;20451;-50
2021/10/01 01:57:34;;;;;;;4.30;0.90;;;12.30;99.90;;;;;;5059546;28;20618;-49
2021/10/01 02:00:03;;;;;;;3.93;1.17;;;12.40;99.90;;;;;;5058244;28;20238;-50
2021/10/01 02:02:31;;;;;;;3.03;1.07;;;12.40;99.90;;;;;;5059725;28;20641;-49
2021/10/01 02:05:00;;;;;;;3.50;1.10;;;12.40;99.90;;;;;;5062916;28;20199;-49
2021/10/01 02:07:28;;;;;;;4.20;1.00;;;12.40;99.90;;;;;;5059049;28;20232;-49
2021/10/01 02:09:56;;;;;;;1.37;0.70;;;12.50;99.90;;;;;;5060550;28;20690;-50
2021/10/01 02:12:23;;;;;;;1.93;1.07;;;12.40;99.90;;;;;;5062142;28;20366;-49
2021/10/01 02:14:52;;;;;;;3.13;0.97;;;12.40;99.90;;;;;;5058045;28;20600;-49
2021/10/01 02:17:21;;;;;;;2.03;0.90;;;12.40;99.90;;;;;;5066473;28;20260;-49
2021/10/01 02:19:49;;;;;;;3.07;0.80;;;12.40;99.90;;;;;;5062191;28;20297;-49
2021/10/01 02:22:20;;;;;;;1.50;0.90;;;12.40;99.90;;;;;;5056758;28;20228;-49
2021/10/01 02:24:47;;;;;;;3.43;1.10;;;12.50;99.90;;;;;;5053948;28;20209;-49
2021/10/01 02:27:31;;;;;;;2.27;0.83;;;12.50;99.90;;;;;;5056931;28;22417;-49
2021/10/01 02:30:06;;;;;;;2.47;0.87;;;12.40;99.90;;;;;;5059474;28;20724;-49
2021/10/01 02:32:42;;;;;;;2.17;1.17;;;12.50;99.90;;;;;;5056276;28;20650;-49
2021/10/01 02:35:09;;;;;;;3.03;1.00;;;12.50;99.90;;;;;;5058890;28;20283;-50
2021/10/01 02:37:36;;;;;;;1.20;1.00;;;12.40;99.90;;;;;;5058549;28;20637;-50
2021/10/01 02:40:05;;;;;;;3.70;1.00;;;12.40;99.90;;;;;;5058231;28;20205;-49
2021/10/01 02:42:32;;;;;;;3.73;1.43;;;12.40;99.90;;;;;;5058545;28;20210;-49
2021/10/01 02:44:59;;;;;;;2.50;0.97;;;12.40;1.00;;;;;;5064021;28;20311;-50
2021/10/01 02:47:29;;;;;;;3.83;0.90;;;12.40;99.90;;;;;;5061977;28;20289;-49
2021/10/01 02:49:58;;;;;;;6.03;0.93;;;12.40;1.00;;;;;;5065394;28;20211;-49
2021/10/01 02:52:55;;;;;;;5.73;0.77;;;12.40;1.00;;;;;;5060234;28;20231;-49
2021/10/01 02:55:35;;;;;;;4.07;1.20;;;12.50;1.00;;;;;;5060446;28;20309;-50
2021/10/01 02:58:16;;;;;;;1.40;0.97;;;12.40;1.00;;;;;;5062892;28;20240;-49
2021/10/01 03:00:44;;;;;;;3.53;1.00;;;12.40;1.00;;;;;;5040746;28;20314;-49
2021/10/01 03:03:17;;;;;;;4.10;1.00;;;12.40;1.00;;;;;;5047866;28;20549;-49
2021/10/01 03:05:44;;;;;;;4.30;0.90;;;12.30;1.00;;;;;;5060188;28;20235;-49
2021/10/01 03:08:15;;;;;;;3.80;1.10;;;12.30;1.00;;;;;;5066575;28;20205;-49
2021/10/01 03:10:44;;;;;;;3.90;0.83;;;12.20;1.00;;;;;;5061792;28;20305;-49
2021/10/01 03:13:14;;;;;;;2.03;0.70;;;12.20;1.00;;;;;;5060108;28;20278;-49
2021/10/01 03:15:42;;;;;;;3.43;0.90;;;12.10;1.00;;;;;;5065413;28;20281;-49
2021/10/01 03:18:10;;;;;;;2.40;0.70;;;12.20;1.00;;;;;;5066653;28;20196;-49
2021/10/01 03:20:37;;;;;;;1.83;0.73;;;12.20;1.00;;;;;;5058217;28;20304;-49
2021/10/01 03:23:06;;;;;;;4.10;1.00;;;12.20;1.00;;;;;;5059602;28;20670;-49
2021/10/01 03:25:34;;;;;;;3.13;0.80;;;12.10;1.00;;;;;;5060127;28;20206;-49
2021/10/01 03:28:01;;;;;;;2.47;0.97;;;12.10;1.00;;;;;;5061384;28;20250;-49
2021/10/01 03:30:28;;;;;;;2.73;1.40;;;12.10;1.00;;;;;;5059961;28;20289;-49
2021/10/01 03:32:55;;;;;;;2.60;0.93;;;12.10;1.00;;;;;;5060198;28;20250;-49
2021/10/01 03:35:22;;;;;;;3.47;0.90;;;12.20;1.00;;;;;;5064965;28;20607;-49
2021/10/01 03:37:49;;;;;;;4.67;1.10;;;12.00;1.00;;;;;;5042112;28;20684;-49
2021/10/01 03:40:17;;;;;;;2.70;0.90;;;12.10;1.00;;;;;;5059444;28;20693;-49
2021/10/01 03:42:43;;;;;;;2.17;0.90;;;12.00;1.00;;;;;;5061621;28;20200;-49
2021/10/01 03:45:11;;;;;;;2.60;1.30;;;12.00;1.00;;;;;;5075885;28;20614;-49
2021/10/01 03:47:38;;;;;;;2.90;1.07;;;12.00;1.00;;;;;;5063512;28;20191;-49
2021/10/01 03:50:06;;;;;;;2.03;0.90;;;12.00;1.00;;;;;;5058601;28;20362;-49
2021/10/01 03:52:33;;;;;;;3.57;1.13;;;12.00;1.00;;;;;;5072918;28;20316;-49
2021/10/01 03:55:02;;;;;;;1.73;0.83;;;11.90;1.00;;;;;;5077074;28;20234;-49
2021/10/01 03:57:29;;;;;;;3.40;1.17;;;11.90;1.00;;;;;;5040154;28;20229;-49
2021/10/01 03:59:56;;;;;;;4.23;1.13;;;11.90;1.00;;;;;;5057940;28;20199;-49
2021/10/01 04:02:23;;;;;;;2.40;1.13;;;11.90;1.00;;;;;;5061182;28;20666;-50
2021/10/01 04:04:50;;;;;;;4.73;0.87;;;11.90;1.00;;;;;;5067185;28;20276;-50
2021/10/01 04:07:17;;;;;;;3.73;1.10;;;12.00;1.00;;;;;;5063548;28;20285;-49
2021/10/01 04:09:43;;;;;;;2.13;0.80;;;12.00;1.00;;;;;;5054546;28;20494;-49
2021/10/01 04:12:10;;;;;;;2.10;1.00;;;11.90;1.00;;;;;;5059503;28;20238;-49
2021/10/01 04:14:37;;;;;;;2.20;1.07;;;12.00;1.00;;;;;;5061607;28;20230;-49
2021/10/01 04:17:04;;;;;;;2.33;1.30;;;12.00;1.00;;;;;;5063830;28;20291;-48
2021/10/01 04:19:31;;;;;;;1.70;0.93;;;11.90;1.00;;;;;;5055784;28;20229;-49
2021/10/01 04:22:03;;;;;;;2.70;1.10;;;11.80;1.00;;;;;;5059391;28;20214;-48
2021/10/01 04:24:30;;;;;;;2.70;0.97;;;11.90;1.00;;;;;;5062142;28;20479;-49
2021/10/01 04:26:57;;;;;;;1.60;0.80;;;11.90;1.00;;;;;;5077190;28;20257;-49
2021/10/01 04:29:24;;;;;;;3.43;1.10;;;11.90;1.00;;;;;;5060445;28;20261;-49
2021/10/01 04:31:51;;;;;;;2.03;0.80;;;11.90;1.00;;;;;;5056989;28;20317;-50
2021/10/01 04:34:18;;;;;;;1.93;0.93;;;11.90;1.00;;;;;;5060778;28;20332;-49
2021/10/01 04:36:45;;;;;;;2.70;1.00;;;11.80;1.00;;;;;;5059935;28;20665;-49
2021/10/01 04:39:13;;;;;;;2.53;1.00;;;11.90;1.00;;;;;;5058454;28;20298;-50
2021/10/01 04:41:41;;;;;;;1.23;0.80;;;11.90;1.00;;;;;;5054606;28;20259;-49
2021/10/01 04:44:08;;;;;;;1.57;0.93;;;11.90;1.00;;;;;;5058509;28;20667;-49
2021/10/01 04:46:35;;;;;;;4.30;1.10;;;11.90;1.00;;;;;;5062881;28;20237;-49
2021/10/01 04:49:02;;;;;;;4.93;1.10;;;11.90;1.00;;;;;;5059926;28;20751;-49
2021/10/01 04:51:29;;;;;;;5.80;1.10;;;11.90;1.00;;;;;;5063636;28;20242;-49
2021/10/01 04:53:56;;;;;;;2.70;1.20;;;12.00;1.00;;;;;;5064636;28;20663;-48
2021/10/01 04:56:23;;;;;;;4.57;1.03;;;12.00;1.00;;;;;;5062289;28;20568;-49
2021/10/01 04:58:50;;;;;;;1.20;0.77;;;12.10;99.90;;;;;;5061300;28;20203;-49
2021/10/01 05:01:17;;;;;;;2.37;1.13;;;12.00;99.90;;;;;;5062505;28;20250;-49
2021/10/01 05:03:44;;;;;;;3.37;1.23;;;12.00;99.90;;;;;;5048103;28;20313;-49
2021/10/01 05:06:11;;;;;;;2.67;1.27;;;11.90;99.90;;;;;;5060118;28;20302;-49
2021/10/01 05:08:38;;;;;;;3.27;1.03;;;11.80;99.90;;;;;;5042301;28;20232;-49
2021/10/01 05:11:05;;;;;;;3.00;0.90;;;11.90;99.90;;;;;;5058924;28;20210;-49
2021/10/01 05:13:32;;;;;;;4.80;1.30;;;11.90;99.90;;;;;;5055864;28;20640;-49
2021/10/01 05:16:01;;;;;;;2.70;1.07;;;12.00;99.90;;;;;;5057977;28;20217;-49
2021/10/01 05:18:28;;;;;;;2.27;1.00;;;12.00;99.90;;;;;;5061357;28;20222;-49
2021/10/01 05:20:55;;;;;;;4.77;1.17;;;12.00;99.90;;;;;;5059348;28;20200;-49
2021/10/01 05:23:22;;;;;;;2.70;1.30;;;12.00;99.90;;;;;;5056328;28;20320;-49
2021/10/01 05:25:49;;;;;;;2.70;0.80;;;12.00;99.90;;;;;;5060140;28;20199;-49
2021/10/01 05:28:15;;;;;;;2.20;1.03;;;12.00;99.90;;;;;;5071393;28;20289;-49
2021/10/01 05:30:42;;;;;;;1.40;0.70;;;12.00;94.70;;;;;;5054376;28;20919;-49
2021/10/01 05:33:11;;;;;;;2.73;0.90;;;12.00;99.90;;;;;;5054852;28;20601;-49
2021/10/01 05:35:40;;;;;;;3.93;1.00;;;12.00;99.90;;;;;;5048064;28;20193;-49
2021/10/01 05:38:07;;;;;;;3.27;0.80;;;12.00;39.70;;;;;;5061686;28;20295;-49
2021/10/01 05:40:34;;;;;;;2.10;1.10;;;12.00;63.40;;;;;;5052850;28;20566;-49
2021/10/01 05:43:01;;;;;;;2.60;1.70;;;12.00;5.90;;;;;;5058463;28;20274;-50
2021/10/01 05:45:28;;;;;;;1.50;0.90;;;12.00;99.90;;;;;;5054881;28;20233;-49
2021/10/01 05:47:55;;;;;;;2.63;0.90;;;12.10;1.00;;;;;;5058055;28;20627;-49
2021/10/01 05:50:25;;;;;;;1.13;1.03;;;12.10;1.00;;;;;;5059289;28;20349;-49
2021/10/01 05:53:01;;;;;;;2.93;0.87;;;12.00;9.20;;;;;;5059927;28;20343;-49
2021/10/01 05:55:28;;;;;;;1.90;1.13;;;12.00;1.00;;;;;;5072810;28;20286;-49
2021/10/01 05:57:54;;;;;;;2.30;0.70;;;12.10;31.90;;;;;;5055742;28;20657;-49
2021/10/01 06:00:22;;;;;;;2.23;1.20;;;12.00;99.90;;;;;;5046479;28;20697;-49
2021/10/01 06:02:49;;;;;;;1.53;1.03;;;12.00;4.20;;;;;;5058319;28;20301;-49
2021/10/01 06:05:16;;;;;;;4.80;0.87;;;12.00;99.90;;;;;;5059641;28;20201;-49
2021/10/01 06:07:43;;;;;;;2.70;0.90;;;12.00;99.90;;;;;;5061322;28;20220;-50
2021/10/01 06:10:11;;;;;;;5.70;1.10;;;12.00;99.90;;;;;;5061785;28;20323;-49
2021/10/01 06:12:38;;;;;;;2.53;1.00;;;12.00;99.90;;;;;;5062980;28;20232;-49
2021/10/01 06:15:06;;;;;;;2.23;1.33;;;12.10;99.90;;;;;;5047861;28;20287;-49
2021/10/01 06:17:33;;;;;;;2.57;0.80;;;12.10;57.60;;;;;;5064293;28;20635;-49
2021/10/01 06:20:02;;;;;;;0.73;0.60;;;12.00;99.90;;;;;;5066257;28;20310;-49
2021/10/01 06:22:29;;;;;;;1.97;0.70;;;12.10;99.90;;;;;;5076556;28;20636;-49
2021/10/01 06:24:56;;;;;;;2.53;1.03;;;12.00;99.90;;;;;;5057609;28;20666;-49
2021/10/01 06:27:23;;;;;;;1.27;1.00;;;12.00;94.80;;;;;;5063487;28;20283;-49
2021/10/01 06:29:53;;;;;;;3.23;0.90;;;12.10;99.90;;;;;;5062731;28;20242;-49
2021/10/01 06:32:19;;;;;;;2.10;1.27;;;12.10;61.10;;;;;;5049822;28;20269;-49
2021/10/01 06:34:46;;;;;;;3.13;0.83;;;12.00;99.90;;;;;;5068423;28;20200;-49
2021/10/01 06:37:13;;;;;;;2.07;0.90;;;12.00;99.90;;;;;;5062121;28;20286;-49
2021/10/01 06:39:40;;;;;;;3.17;0.73;;;12.10;99.90;;;;;;5062930;28;20267;-49
2021/10/01 06:42:07;;;;;;;1.90;0.90;;;12.10;99.90;;;;;;5064416;28;20281;-49
2021/10/01 06:44:35;;;;;;;1.90;1.07;;;12.20;97.50;;;;;;5064974;28;20206;-50
2021/10/01 06:47:08;;;;;;;4.10;0.70;;;12.20;1.00;;;;;;5060714;28;20217;-49
2021/10/01 06:53:03;;;;;;;2.60;1.57;;;12.20;99.90;;;;;;4975546;28;20624;-49
2021/10/01 07:24:09;;;;;;;2.47;1.10;;;12.60;90.40;;;;;;5061089;28;20201;-49
2021/10/01 08:20:50;;;;;;;3.83;1.20;;;13.40;1.00;;;;;;5062836;28;20196;-49
2021/10/01 08:23:17;;;;;;;6.73;1.10;;;13.50;99.90;;;;;;5054569;28;20634;-49
2021/10/01 08:25:44;;;;;;;4.73;0.90;;;13.50;1.00;;;;;;5052627;28;20368;-49
2021/10/01 08:28:11;;;;;;;5.30;1.23;;;13.60;99.90;;;;;;5055470;28;20293;-49
2021/10/01 08:30:38;;;;;;;3.57;0.87;;;13.70;1.00;;;;;;5054727;28;20282;-49
2021/10/01 08:33:05;;;;;;;4.33;1.10;;;13.70;1.00;;;;;;5058558;28;26198;-49
2021/10/01 08:35:32;;;;;;;3.20;1.10;;;13.70;99.90;;;;;;5058580;28;20317;-49
2021/10/01 08:38:00;;;;;;;2.40;0.87;;;13.80;1.00;;;;;;5057879;28;20226;-49
2021/10/01 08:40:27;;;;;;;3.57;1.20;;;13.70;99.90;;;;;;5054148;28;20588;-49
2021/10/01 08:42:55;;;;;;;2.40;1.10;;;13.70;1.00;;;;;;5054816;28;20338;-49
2021/10/01 08:45:24;;;;;;;6.33;1.10;;;13.60;71.90;;;;;;5057934;28;20206;-49
2021/10/01 08:47:52;;;;;;;3.07;0.83;;;13.60;99.90;;;;;;5049834;28;20288;-49
2021/10/01 08:50:21;;;;;;;2.93;1.00;;;13.50;1.00;;;;;;5062049;28;20229;-49
2021/10/01 08:52:49;;;;;;;1.57;0.83;;;13.50;1.00;;;;;;5054778;28;20313;-49
2021/10/01 08:55:17;;;;;;;2.33;0.97;;;13.50;1.00;;;;;;5053901;28;20231;-50
2021/10/01 08:57:44;;;;;;;3.23;1.10;;;13.40;1.00;;;;;;5054046;28;20194;-49
2021/10/01 09:00:14;;;;;;;2.93;1.07;;;13.50;1.00;;;;;;5050301;28;20293;-49
2021/10/01 09:02:41;;;;;;;2.47;0.90;;;13.40;1.00;;;;;;5054519;28;20471;-49
2021/10/01 09:05:09;;;;;;;1.67;1.00;;;13.40;99.90;;;;;;5033463;28;20603;-48
2021/10/01 09:07:36;;;;;;;3.47;0.93;;;13.40;1.00;;;;;;5057779;28;20227;-49
2021/10/01 09:10:11;;;;;;;1.53;1.00;;;13.50;99.90;;;;;;5056261;28;20962;-50
2021/10/01 09:12:39;;;;;;;2.10;1.10;;;13.60;1.00;;;;;;5043022;28;20345;-49
2021/10/01 09:15:09;;;;;;;2.33;1.30;;;13.70;1.00;;;;;;5034148;28;21140;-49
2021/10/01 09:17:45;;;;;;;5.93;1.03;;;13.70;1.00;;;;;;5041113;28;20207;-49
2021/10/01 09:20:14;;;;;;;2.13;1.37;;;13.70;50.30;;;;;;5038906;28;21041;-49
2021/10/01 09:22:41;;;;;;;6.80;1.53;;;13.70;1.00;;;;;;5018154;28;20933;-49
2021/10/01 09:25:15;;;;;;;5.43;2.77;;;13.70;1.00;;;;;;5036662;28;20238;-50
2021/10/01 09:27:45;;;;;;;3.53;1.17;;;13.70;84.80;;;;;;5034004;28;20282;-49
2021/10/01 09:30:15;;;;;;;3.73;1.10;;;13.70;19.60;;;;;;5037821;28;20691;-49
2021/10/01 09:33:01;;;;;;;3.77;1.20;;;13.80;1.00;;;;;;5036917;28;20627;-50
2021/10/01 09:35:28;;;;;;;1.73;1.00;;;13.90;7.00;;;;;;5033540;28;20828;-49
2021/10/01 09:38:06;;;;;;;2.67;1.03;;;13.90;1.00;;;;;;5030162;28;20597;-49
2021/10/01 09:40:34;;;;;;;3.73;1.10;;;14.00;1.00;;;;;;5040526;28;20619;-49
2021/10/01 09:43:01;;;;;;;2.83;1.43;;;14.10;1.00;;;;;;5031439;28;20316;-49
2021/10/01 09:45:29;;;;;;;3.50;1.20;;;14.20;1.00;;;;;;5036230;28;20289;-49
2021/10/01 09:48:05;;;;;;;2.47;1.10;;;14.30;1.00;;;;;;5038113;28;20207;-49
2021/10/01 09:50:35;;;;;;;4.37;1.67;;;14.50;1.00;;;;;;5036422;28;20235;-49
2021/10/01 09:53:05;;;;;;;3.67;0.90;;;14.50;99.90;;;;;;5043025;28;20204;-49
2021/10/01 09:55:46;;;;;;;3.07;0.90;;;14.70;99.90;;;;;;5045123;28;20335;-50
2021/10/01 09:58:17;;;;;;;5.93;1.20;;;14.70;99.90;;;;;;5026336;28;20278;-49
2021/10/01 10:00:53;;;;;;;4.57;1.77;;;14.80;99.90;;;;;;5043449;28;20698;-49
2021/10/01 10:03:23;;;;;;;4.60;1.43;;;15.10;99.90;;;;;;5044139;28;20195;-49
2021/10/01 10:05:54;;;;;;;3.70;1.07;;;15.20;54.50;;;;;;5038130;28;20592;-49
2021/10/01 10:08:27;;;;;;;2.27;1.00;;;15.00;1.00;;;;;;5042808;28;20609;-49
2021/10/01 10:10:56;;;;;;;3.90;1.00;;;15.10;1.00;;;;;;5037636;28;20552;-49
2021/10/01 10:13:51;;;;;;;3.63;1.17;;;15.10;1.00;;;;;;5052575;28;20250;-49
2021/10/01 10:16:24;;;;;;;8.37;2.03;;;15.00;1.00;;;;;;5062310;28;20195;-49
2021/10/01 10:19:07;;;;;;;2.67;0.87;;;15.10;99.90;;;;;;5061931;28;20239;-49
2021/10/01 10:21:35;;;;;;;5.10;1.57;;;15.20;1.00;;;;;;5055304;28;20231;-49
2021/10/01 10:24:03;;;;;;;4.90;1.50;;;15.20;99.90;;;;;;5060771;28;20231;-49
2021/10/01 10:26:31;;;;;;;7.37;1.17;;;15.40;1.00;;;;;;5057622;28;20680;-50
2021/10/01 10:29:00;;;;;;;3.33;1.00;;;15.40;1.00;;;;;;5064245;28;20677;-49
2021/10/01 10:31:31;;;;;;;3.70;1.17;;;15.50;1.00;;;;;;5057420;28;20231;-49
2021/10/01 10:33:58;;;;;;;4.00;1.10;;;15.60;1.00;;;;;;5061694;28;20234;-49
2021/10/01 10:36:40;;;;;;;4.03;1.10;;;15.70;99.90;;;;;;5061100;28;20624;-49
2021/10/01 10:39:15;;;;;;;3.53;1.20;;;15.60;99.90;;;;;;5056757;28;20202;-50
2021/10/01 10:42:03;;;;;;;1.83;0.80;;;15.70;1.00;;;;;;5059584;28;20235;-56
2021/10/01 10:44:57;;;;;;;3.40;1.10;;;15.60;1.00;;;;;;5047549;28;20240;-57
2021/10/01 10:48:11;;;;;;;2.50;1.40;;;15.60;99.90;;;;;;5047196;28;20839;-49
2021/10/01 10:50:51;;;;;;;3.17;0.90;;;15.70;1.00;;;;;;4996065;28;20325;-50
2021/10/01 10:53:21;;;;;;;2.87;1.10;;;15.70;1.00;;;;;;4994176;28;20326;-49
2021/10/01 10:55:50;;;;;;;5.77;0.97;;;15.70;1.00;;;;;;4998476;28;20311;-57
2021/10/01 10:58:22;;;;;;;3.23;1.03;;;15.70;99.90;;;;;;4990517;28;20215;-50
2021/10/01 11:00:55;;;;;;;1.97;0.80;;;15.60;90.70;;;;;;4989232;28;20200;-49
2021/10/01 11:03:28;;;;;;;4.97;1.00;;;15.70;99.90;;;;;;4989690;28;20652;-49
2021/10/01 11:06:10;;;;;;;1.87;1.07;;;15.70;1.00;;;;;;4998481;28;20234;-50
2021/10/01 11:08:39;;;;;;;2.13;0.90;;;15.70;88.50;;;;;;4984549;28;20243;-50
2021/10/01 11:11:26;;;;;;;2.27;0.97;;;15.70;1.00;;;;;;4995837;28;20439;-49
2021/10/01 11:14:15;;;;;;;2.47;0.97;;;15.90;1.00;;;;;;4970554;28;20248;-49
2021/10/01 11:16:44;;;;;;;1.50;0.80;;;16.00;1.00;;;;;;5004783;28;20693;-49
2021/10/01 11:19:11;;;;;;;1.70;0.90;;;15.90;1.00;;;;;;4996310;28;20333;-49
2021/10/01 11:21:44;;;;;;;2.53;1.00;;;16.00;1.00;;;;;;4994304;28;20716;-50
2021/10/01 11:24:21;;;;;;;3.27;1.00;;;16.00;1.00;;;;;;5007057;28;20280;-50
2021/10/01 11:26:57;;;;;;;3.07;1.07;;;16.00;1.00;;;;;;5045562;28;20221;-50
2021/10/01 11:29:26;;;;;;;3.53;1.00;;;16.10;1.00;;;;;;5046970;28;20299;-50
2021/10/01 11:31:59;;;;;;;4.00;0.90;;;16.10;1.00;;;;;;5016677;28;20234;-49
2021/10/01 11:34:43;;;;;;;3.57;0.90;;;16.10;1.00;;;;;;5046992;28;20224;-49
2021/10/01 11:37:40;;;;;;;3.20;0.80;;;16.30;72.90;;;;;;5044808;28;20198;-50
2021/10/01 11:40:22;;;;;;;3.30;0.80;;;16.30;1.00;;;;;;5041558;28;20247;-49
2021/10/01 11:42:54;;;;;;;2.73;1.00;;;16.40;23.80;;;;;;5041833;28;20595;-49
2021/10/01 11:45:25;;;;;;;3.27;0.90;;;16.40;99.90;;;;;;5036528;28;20270;-50
2021/10/01 11:48:12;;;;;;;3.23;1.00;;;16.50;1.00;;;;;;5037374;28;20667;-50
2021/10/01 11:50:49;;;;;;;3.23;0.73;;;16.50;1.00;;;;;;5037148;28;20242;-49
2021/10/01 11:53:30;;;;;;;2.97;1.03;;;16.50;1.00;;;;;;5037928;28;20624;-49
2021/10/01 11:56:03;;;;;;;3.20;0.70;;;16.50;1.00;;;;;;5036997;28;20234;-49
2021/10/01 11:58:33;;;;;;;2.33;0.90;;;16.50;95.80;;;;;;5042757;28;20197;-49
2021/10/01 12:01:17;;;;;;;1.90;0.70;;;16.50;99.90;;;;;;5046008;28;20196;-50
2021/10/01 12:03:54;;;;;;;1.77;0.90;;;16.70;1.00;;;;;;5043933;28;20595;-49
2021/10/01 12:06:23;;;;;;;7.07;0.90;;;16.70;1.00;;;;;;5041730;28;20256;-50
2021/10/01 12:09:08;;;;;;;5.83;1.33;;;17.00;1.00;;;;;;5040096;28;20201;-49
2021/10/01 12:11:38;;;;;;;2.17;0.80;;;17.20;99.90;;;;;;5045473;28;20507;-50
2021/10/01 12:14:13;;;;;;;3.97;1.27;;;17.40;99.90;;;;;;5053387;28;20232;-50
2021/10/01 12:16:52;;;;;;;6.13;1.00;;;17.20;1.00;;;;;;5060721;28;20221;-50
2021/10/01 12:19:25;;;;;;;3.77;1.03;;;17.10;99.90;;;;;;5067026;28;20206;-49
2021/10/01 12:22:00;;;;;;;2.80;0.97;;;17.00;99.90;;;;;;5062841;28;20615;-49
2021/10/01 12:24:27;;;;;;;2.67;0.77;;;17.00;1.00;;;;;;5061221;28;20202;-50
2021/10/01 12:26:55;;;;;;;5.10;1.10;;;16.90;1.00;;;;;;5058737;28;20268;-49
2021/10/01 12:29:24;;;;;;;4.80;0.70;;;16.90;1.00;;;;;;5054304;28;20221;-49
2021/10/01 12:31:57;;;;;;;2.97;0.80;;;16.90;1.00;;;;;;5058451;28;20740;-49
2021/10/01 12:34:48;;;;;;;1.97;0.90;;;16.90;99.90;;;;;;5057171;28;20188;-49
2021/10/01 12:37:18;;;;;;;3.43;0.90;;;16.90;99.90;;;;;;5061615;28;20235;-50
2021/10/01 12:39:56;;;;;;;3.40;1.00;;;16.90;99.90;;;;;;5057056;28;20224;-49
2021/10/01 12:42:27;;;;;;;2.50;0.93;;;16.90;1.00;;;;;;5052980;28;20208;-50
2021/10/01 12:45:02;;;;;;;4.53;1.10;;;16.90;1.00;;;;;;5054641;28;20275;-50
2021/10/01 12:47:33;;;;;;;2.93;1.00;;;16.80;10.10;;;;;;5054303;28;20281;-49
2021/10/01 12:50:06;;;;;;;3.13;1.00;;;16.90;99.90;;;;;;5049801;28;20198;-50
2021/10/01 12:52:34;;;;;;;2.97;0.93;;;17.00;30.90;;;;;;5049016;28;20249;-50
2021/10/01 12:55:08;;;;;;;3.70;0.80;;;17.00;1.00;;;;;;5053464;28;20205;-50
2021/10/01 12:57:46;;;;;;;2.23;0.97;;;17.10;99.90;;;;;;5052485;28;20220;-50
2021/10/01 13:00:17;;;;;;;3.40;1.10;;;17.20;1.00;;;;;;5059218;28;20304;-50
2021/10/01 13:03:08;;;;;;;1.90;1.17;;;17.30;1.00;;;;;;5053699;28;20304;-50
2021/10/01 13:05:40;;;;;;;3.47;1.00;;;17.10;1.00;;;;;;5053435;28;20233;-50
2021/10/01 13:08:08;;;;;;;2.10;0.80;;;17.00;1.00;;;;;;5057043;28;20217;-50
2021/10/01 13:10:55;;;;;;;1.87;0.90;;;17.00;1.00;;;;;;5065242;28;20199;-50
2021/10/01 13:13:23;;;;;;;3.70;1.13;;;17.10;1.00;;;;;;5052058;28;20273;-50
2021/10/01 13:15:56;;;;;;;3.50;1.80;;;17.10;1.00;;;;;;5052634;28;20304;-50
2021/10/01 13:18:27;;;;;;;2.47;0.90;;;17.20;1.00;;;;;;5051959;28;20762;-50
2021/10/01 13:21:20;;;;;;;1.77;0.80;;;17.20;1.00;;;;;;5060454;28;20743;-50
2021/10/01 13:23:57;;;;;;;2.77;1.00;;;17.20;1.00;;;;;;5056848;28;20256;-50
2021/10/01 13:26:30;;;;;;;1.07;0.70;;;17.10;1.00;;;;;;5037445;28;20372;-49
2021/10/01 13:29:04;;;;;;;1.40;0.80;;;17.10;1.00;;;;;;5063824;28;22260;-49
2021/10/01 13:31:46;;;;;;;1.87;0.80;;;17.10;1.00;;;;;;5055530;28;20398;-50
2021/10/01 13:34:14;;;;;;;5.50;1.00;;;17.20;1.00;;;;;;5055399;28;20621;-50
2021/10/01 13:36:42;;;;;;;2.70;0.90;;;17.10;1.00;;;;;;5056387;28;20225;-50
2021/10/01 13:39:09;;;;;;;2.93;0.87;;;17.00;1.00;;;;;;5054960;28;20235;-50
2021/10/01 13:41:38;;;;;;;1.33;0.80;;;17.10;86.20;;;;;;5058011;28;20624;-50
2021/10/01 13:44:05;;;;;;;1.40;0.87;;;17.00;1.00;;;;;;5055780;28;20212;-50
2021/10/01 13:46:32;;;;;;;1.30;0.80;;;17.00;1.00;;;;;;5049549;28;20198;-50
2021/10/01 13:49:00;;;;;;;2.97;0.70;;;17.00;1.00;;;;;;5059841;28;20236;-50
2021/10/01 13:51:26;;;;;;;3.60;0.97;;;16.90;1.00;;;;;;5059919;28;20277;-50
2021/10/01 13:53:53;;;;;;;2.83;1.10;;;17.00;1.00;;;;;;5037976;28;20343;-50
2021/10/01 13:56:20;;;;;;;4.17;0.87;;;17.00;99.90;;;;;;5054376;28;20223;-50
2021/10/01 13:58:47;;;;;;;6.30;1.10;;;16.90;95.60;;;;;;5057807;28;20354;-50
2021/10/01 14:01:15;;;;;;;2.43;0.87;;;16.90;1.00;;;;;;5060670;28;20292;-50
2021/10/01 14:03:42;;;;;;;3.03;0.80;;;16.90;99.90;;;;;;5058440;28;20213;-50
2021/10/01 14:06:09;;;;;;;1.50;0.67;;;16.90;99.90;;;;;;5055263;28;20297;-50
2021/10/01 14:08:36;;;;;;;1.13;0.60;;;17.00;1.00;;;;;;5051640;28;20300;-50
2021/10/01 14:11:23;;;;;;;1.90;0.80;;;17.00;1.00;;;;;;5053431;28;20666;-50
2021/10/01 14:13:50;;;;;;;0.90;0.80;;;16.90;1.00;;;;;;5060020;28;20266;-50
2021/10/01 14:16:16;;;;;;;2.10;0.60;;;17.00;1.00;;;;;;5060984;28;20282;-50
2021/10/01 14:18:43;;;;;;;2.10;0.60;;;17.00;1.00;;;;;;5047161;28;20199;-50
2021/10/01 14:21:12;;;;;;;3.27;0.73;;;16.90;1.00;;;;;;5060027;28;20210;-50
2021/10/01 14:23:39;;;;;;;5.37;0.90;;;16.80;99.90;;;;;;5058204;28;20206;-50
2021/10/01 14:26:06;;;;;;;2.17;0.80;;;16.80;99.90;;;;;;5049382;28;20669;-50
2021/10/01 14:28:33;;;;;;;4.10;1.00;;;16.80;1.00;;;;;;5057624;28;20206;-48
2021/10/01 14:31:00;;;;;;;5.73;0.80;;;16.80;1.00;;;;;;5053390;28;20301;-51
2021/10/01 14:33:27;;;;;;;4.57;0.80;;;16.70;1.00;;;;;;5053605;28;20223;-48
2021/10/01 14:35:56;;;;;;;5.20;0.83;;;16.70;65.90;;;;;;5054782;28;20629;-48
2021/10/01 14:38:23;;;;;;;2.50;1.10;;;16.70;1.90;;;;;;5038439;28;20594;-51